Hovedside
METAR-TAF:

METAR-TAF

Lufthavner :

Alta lufthavn

Alta, Norge

breddegrad: 69-59N, lengdegrad: 023-22E, høyde over havet: 0 m

Gjeldene værobservasjon

Denne rapporten ble laget for 58 minutter siden, klokken 17:50 UTC
Vind 14 kt fra Sørvest
Temperatur 6°C
Luftfuktighet 65%
Trykk 1017 hPa
Sikt 10 km eller mer
ingen skyer under 1500 m og ingen bygeskyer

METAR: ENAT 191750Z 23014KT CAVOK 06/00 Q1017 RMK WIND 700FT 21018KT

Tid: 19:48 (18:48 UTC)

Varsel

Denne rapporten ble laget for 1 time og 48 minutter siden, klokken 17:00 UTC
Varsel gyldig fra 19. klokken 18 UTC til 19. klokken 23 UTC
Vind 8 kt fra Sør
Sikt 10 km eller mer
Spredte skyer i en høyde av 5000 ft
Midlertidig
fra 19. klokken 20 UTC til 19. klokken 23 UTC
Vind 25 kt fra Nordvest

TAF: ENAT 191700Z 1918/1923 17008KT 9999 SCT050 TEMPO 1920/1923 32025KT

Værobservasjoner og værvarsel for over 4000 flyplasser (METAR- og TAF-rapporter).

Tilgjengelige stasjoner er representert av de røde og gule prikkene på kartet.

Hold musepekeren over prikken for å se navnet på stasjonen.

Klikk så for å se værobservasjoner og -varsler.

For å forandre kartet kan du klikke på den grønne knappen med svart kryss for å zoome inn, på den grønne knappen med strek for å zoome ut, eller på de grønne pilene for å se tilstøtende kart.


METAR-TAF: